sensor_id;sensor_type;location;lat;lon;timestamp;temperature;humidity
16313;DHT22;8265;52.622;13.296;2022-11-20T00:03:29;-1.00;93.60
16313;DHT22;8265;52.622;13.296;2022-11-20T00:08:51;-1.00;93.40
16313;DHT22;8265;52.622;13.296;2022-11-20T00:14:11;-1.00;93.30
16313;DHT22;8265;52.622;13.296;2022-11-20T00:19:32;-1.10;93.30
16313;DHT22;8265;52.622;13.296;2022-11-20T00:24:53;-1.10;92.90
16313;DHT22;8265;52.622;13.296;2022-11-20T00:30:14;-1.10;93.60
16313;DHT22;8265;52.622;13.296;2022-11-20T00:35:35;-1.10;93.20
16313;DHT22;8265;52.622;13.296;2022-11-20T00:40:57;-1.10;93.30
16313;DHT22;8265;52.622;13.296;2022-11-20T00:46:18;-1.10;93.10
16313;DHT22;8265;52.622;13.296;2022-11-20T00:51:38;-1.20;92.90
16313;DHT22;8265;52.622;13.296;2022-11-20T00:56:59;-1.10;92.90
16313;DHT22;8265;52.622;13.296;2022-11-20T01:02:20;-1.10;92.70
16313;DHT22;8265;52.622;13.296;2022-11-20T01:07:41;-1.10;92.60
16313;DHT22;8265;52.622;13.296;2022-11-20T01:13:02;-1.10;92.10
16313;DHT22;8265;52.622;13.296;2022-11-20T01:18:23;-1.10;92.10
16313;DHT22;8265;52.622;13.296;2022-11-20T01:23:44;-1.10;92.30
16313;DHT22;8265;52.622;13.296;2022-11-20T01:29:06;-1.20;92.60
16313;DHT22;8265;52.622;13.296;2022-11-20T01:34:26;-1.20;92.50
16313;DHT22;8265;52.622;13.296;2022-11-20T01:39:47;-1.30;92.70
16313;DHT22;8265;52.622;13.296;2022-11-20T01:50:29;-1.30;92.70
16313;DHT22;8265;52.622;13.296;2022-11-20T01:55:51;-1.30;92.70
16313;DHT22;8265;52.622;13.296;2022-11-20T02:01:11;-1.30;92.50
16313;DHT22;8265;52.622;13.296;2022-11-20T02:06:35;-1.20;92.80
16313;DHT22;8265;52.622;13.296;2022-11-20T02:11:53;-1.30;92.60
16313;DHT22;8265;52.622;13.296;2022-11-20T02:17:14;-1.30;92.80
16313;DHT22;8265;52.622;13.296;2022-11-20T02:22:36;-1.30;93.00
16313;DHT22;8265;52.622;13.296;2022-11-20T02:27:56;-1.30;92.70
16313;DHT22;8265;52.622;13.296;2022-11-20T02:33:17;-1.30;92.90
16313;DHT22;8265;52.622;13.296;2022-11-20T02:38:38;-1.30;93.00
16313;DHT22;8265;52.622;13.296;2022-11-20T02:43:59;-1.30;93.00
16313;DHT22;8265;52.622;13.296;2022-11-20T02:49:20;-1.30;93.00
16313;DHT22;8265;52.622;13.296;2022-11-20T02:54:41;-1.30;92.90
16313;DHT22;8265;52.622;13.296;2022-11-20T03:00:02;-1.30;92.40
16313;DHT22;8265;52.622;13.296;2022-11-20T03:05:23;-1.30;92.30
16313;DHT22;8265;52.622;13.296;2022-11-20T03:10:44;-1.40;92.50
16313;DHT22;8265;52.622;13.296;2022-11-20T03:16:06;-1.50;92.60
16313;DHT22;8265;52.622;13.296;2022-11-20T03:21:26;-1.50;92.80
16313;DHT22;8265;52.622;13.296;2022-11-20T03:26:47;-1.40;92.90
16313;DHT22;8265;52.622;13.296;2022-11-20T03:32:08;-1.30;92.50
16313;DHT22;8265;52.622;13.296;2022-11-20T03:37:29;-1.30;92.30
16313;DHT22;8265;52.622;13.296;2022-11-20T03:42:50;-1.50;92.40
16313;DHT22;8265;52.622;13.296;2022-11-20T03:48:11;-1.50;92.40
16313;DHT22;8265;52.622;13.296;2022-11-20T03:53:32;-1.50;92.70
16313;DHT22;8265;52.622;13.296;2022-11-20T03:58:53;-1.50;92.70
16313;DHT22;8265;52.622;13.296;2022-11-20T04:04:14;-1.30;92.80
16313;DHT22;8265;52.622;13.296;2022-11-20T04:09:35;-1.50;92.30
16313;DHT22;8265;52.622;13.296;2022-11-20T04:14:56;-1.50;92.20
16313;DHT22;8265;52.622;13.296;2022-11-20T04:20:17;-1.50;92.20
16313;DHT22;8265;52.622;13.296;2022-11-20T04:25:38;-1.50;92.40
16313;DHT22;8265;52.622;13.296;2022-11-20T04:31:05;-1.60;92.30
16313;DHT22;8265;52.622;13.296;2022-11-20T04:36:21;-1.70;92.60
16313;DHT22;8265;52.622;13.296;2022-11-20T04:41:40;-1.70;92.20
16313;DHT22;8265;52.622;13.296;2022-11-20T04:47:02;-1.80;92.00
16313;DHT22;8265;52.622;13.296;2022-11-20T04:52:23;-1.90;92.50
16313;DHT22;8265;52.622;13.296;2022-11-20T04:57:44;-1.90;92.80
16313;DHT22;8265;52.622;13.296;2022-11-20T05:03:05;-1.80;92.70
16313;DHT22;8265;52.622;13.296;2022-11-20T05:08:25;-1.80;92.70
16313;DHT22;8265;52.622;13.296;2022-11-20T05:13:47;-1.80;92.60
16313;DHT22;8265;52.622;13.296;2022-11-20T05:19:07;-1.80;92.30
16313;DHT22;8265;52.622;13.296;2022-11-20T05:24:28;-1.80;92.60
16313;DHT22;8265;52.622;13.296;2022-11-20T05:29:49;-1.80;92.60
16313;DHT22;8265;52.622;13.296;2022-11-20T05:35:10;-1.80;92.80
16313;DHT22;8265;52.622;13.296;2022-11-20T05:40:31;-1.80;92.80
16313;DHT22;8265;52.622;13.296;2022-11-20T05:45:53;-1.70;92.90
16313;DHT22;8265;52.622;13.296;2022-11-20T05:51:14;-1.80;92.80
16313;DHT22;8265;52.622;13.296;2022-11-20T05:56:34;-1.80;92.90
16313;DHT22;8265;52.622;13.296;2022-11-20T06:01:55;-1.80;92.80
16313;DHT22;8265;52.622;13.296;2022-11-20T06:07:16;-1.80;93.00
16313;DHT22;8265;52.622;13.296;2022-11-20T06:12:37;-1.80;93.20
16313;DHT22;8265;52.622;13.296;2022-11-20T06:17:58;-1.70;93.00
16313;DHT22;8265;52.622;13.296;2022-11-20T06:23:19;-1.70;92.80
16313;DHT22;8265;52.622;13.296;2022-11-20T06:28:40;-1.60;92.90
16313;DHT22;8265;52.622;13.296;2022-11-20T06:34:01;-1.60;92.20
16313;DHT22;8265;52.622;13.296;2022-11-20T06:39:22;-1.60;92.30
16313;DHT22;8265;52.622;13.296;2022-11-20T06:44:43;-1.60;92.60
16313;DHT22;8265;52.622;13.296;2022-11-20T06:53:42;-1.60;92.70
16313;DHT22;8265;52.622;13.296;2022-11-20T06:59:04;-1.60;92.90
16313;DHT22;8265;52.622;13.296;2022-11-20T07:04:24;-1.60;92.90
16313;DHT22;8265;52.622;13.296;2022-11-20T07:09:45;-1.60;92.80
16313;DHT22;8265;52.622;13.296;2022-11-20T07:15:06;-1.60;92.70
16313;DHT22;8265;52.622;13.296;2022-11-20T07:20:27;-1.50;92.50
16313;DHT22;8265;52.622;13.296;2022-11-20T07:25:48;-1.50;92.60
16313;DHT22;8265;52.622;13.296;2022-11-20T07:31:09;-1.40;92.50
16313;DHT22;8265;52.622;13.296;2022-11-20T07:36:30;-1.30;92.60
16313;DHT22;8265;52.622;13.296;2022-11-20T07:41:51;-1.20;92.10
16313;DHT22;8265;52.622;13.296;2022-11-20T07:47:12;-1.10;92.00
16313;DHT22;8265;52.622;13.296;2022-11-20T07:52:33;-1.20;91.90
16313;DHT22;8265;52.622;13.296;2022-11-20T07:57:54;-1.10;91.60
16313;DHT22;8265;52.622;13.296;2022-11-20T08:03:15;-0.90;91.40
16313;DHT22;8265;52.622;13.296;2022-11-20T08:08:36;-0.90;90.90
16313;DHT22;8265;52.622;13.296;2022-11-20T08:13:57;-0.90;91.10
16313;DHT22;8265;52.622;13.296;2022-11-20T08:19:18;-0.90;91.10
16313;DHT22;8265;52.622;13.296;2022-11-20T08:24:39;-0.90;90.90
16313;DHT22;8265;52.622;13.296;2022-11-20T08:30:00;-0.90;90.80
16313;DHT22;8265;52.622;13.296;2022-11-20T08:35:21;-0.70;90.60
16313;DHT22;8265;52.622;13.296;2022-11-20T08:40:42;-0.70;90.20
16313;DHT22;8265;52.622;13.296;2022-11-20T08:46:02;-0.70;90.00
16313;DHT22;8265;52.622;13.296;2022-11-20T08:51:23;-0.70;89.80
16313;DHT22;8265;52.622;13.296;2022-11-20T08:56:45;-0.70;89.60
16313;DHT22;8265;52.622;13.296;2022-11-20T09:02:05;-0.60;88.90
16313;DHT22;8265;52.622;13.296;2022-11-20T09:07:26;-0.60;89.70
16313;DHT22;8265;52.622;13.296;2022-11-20T09:12:51;-0.60;89.20
16313;DHT22;8265;52.622;13.296;2022-11-20T09:18:09;-0.70;89.70
16313;DHT22;8265;52.622;13.296;2022-11-20T09:23:33;-0.60;89.30
16313;DHT22;8265;52.622;13.296;2022-11-20T09:28:50;-0.50;89.00
16313;DHT22;8265;52.622;13.296;2022-11-20T09:34:11;-0.50;89.10
16313;DHT22;8265;52.622;13.296;2022-11-20T09:39:32;-0.40;88.70
16313;DHT22;8265;52.622;13.296;2022-11-20T09:45:02;-0.30;88.70
16313;DHT22;8265;52.622;13.296;2022-11-20T09:50:31;-0.10;87.10
16313;DHT22;8265;52.622;13.296;2022-11-20T09:55:36;-0.20;87.90
16313;DHT22;8265;52.622;13.296;2022-11-20T10:00:56;0.00;88.10
16313;DHT22;8265;52.622;13.296;2022-11-20T10:06:18;0.00;86.70
16313;DHT22;8265;52.622;13.296;2022-11-20T10:11:57;0.00;87.30
16313;DHT22;8265;52.622;13.296;2022-11-20T10:33:08;0.00;87.30
16313;DHT22;8265;52.622;13.296;2022-11-20T10:38:25;0.30;86.00
16313;DHT22;8265;52.622;13.296;2022-11-20T10:43:44;0.20;85.50
16313;DHT22;8265;52.622;13.296;2022-11-20T10:49:10;0.30;86.70
16313;DHT22;8265;52.622;13.296;2022-11-20T10:54:37;0.20;85.90
16313;DHT22;8265;52.622;13.296;2022-11-20T11:00:00;0.00;87.00
16313;DHT22;8265;52.622;13.296;2022-11-20T11:10:48;0.40;85.00
16313;DHT22;8265;52.622;13.296;2022-11-20T11:15:50;0.20;85.40
16313;DHT22;8265;52.622;13.296;2022-11-20T11:21:11;0.20;85.60
16313;DHT22;8265;52.622;13.296;2022-11-20T11:26:32;0.00;86.30
16313;DHT22;8265;52.622;13.296;2022-11-20T11:32:03;0.00;86.50
16313;DHT22;8265;52.622;13.296;2022-11-20T11:37:18;-0.40;88.80
16313;DHT22;8265;52.622;13.296;2022-11-20T11:42:35;-0.50;90.50
16313;DHT22;8265;52.622;13.296;2022-11-20T11:47:57;-0.40;90.50
16313;DHT22;8265;52.622;13.296;2022-11-20T11:53:18;-0.20;90.20
16313;DHT22;8265;52.622;13.296;2022-11-20T11:58:43;-0.30;90.00
16313;DHT22;8265;52.622;13.296;2022-11-20T12:04:13;-0.30;89.70
16313;DHT22;8265;52.622;13.296;2022-11-20T12:09:20;-0.20;89.70
16313;DHT22;8265;52.622;13.296;2022-11-20T12:14:42;-0.30;89.50
16313;DHT22;8265;52.622;13.296;2022-11-20T12:20:02;0.00;88.10
16313;DHT22;8265;52.622;13.296;2022-11-20T12:25:30;0.00;87.00
16313;DHT22;8265;52.622;13.296;2022-11-20T12:47:27;0.20;85.90
16313;DHT22;8265;52.622;13.296;2022-11-20T12:57:57;0.60;86.80
16313;DHT22;8265;52.622;13.296;2022-11-20T13:08:16;0.60;85.30
16313;DHT22;8265;52.622;13.296;2022-11-20T13:18:53;0.20;86.40
16313;DHT22;8265;52.622;13.296;2022-11-20T13:29:36;-0.20;88.30
16313;DHT22;8265;52.622;13.296;2022-11-20T13:35:00;-0.20;88.70
16313;DHT22;8265;52.622;13.296;2022-11-20T13:40:21;-0.10;88.70
16313;DHT22;8265;52.622;13.296;2022-11-20T13:45:38;-0.10;88.80
16313;DHT22;8265;52.622;13.296;2022-11-20T14:01:41;-0.10;88.70
16313;DHT22;8265;52.622;13.296;2022-11-20T14:07:02;-0.30;89.60
16313;DHT22;8265;52.622;13.296;2022-11-20T14:12:27;-0.30;89.70
16313;DHT22;8265;52.622;13.296;2022-11-20T14:17:44;-0.30;90.00
16313;DHT22;8265;52.622;13.296;2022-11-20T14:23:07;-0.30;89.90
16313;DHT22;8265;52.622;13.296;2022-11-20T14:28:26;-0.30;90.50
16313;DHT22;8265;52.622;13.296;2022-11-20T14:33:47;-0.40;90.10
16313;DHT22;8265;52.622;13.296;2022-11-20T14:39:09;-0.40;90.00
16313;DHT22;8265;52.622;13.296;2022-11-20T14:44:30;-0.40;90.60
16313;DHT22;8265;52.622;13.296;2022-11-20T14:49:50;-0.50;90.30
16313;DHT22;8265;52.622;13.296;2022-11-20T14:55:12;-0.50;90.40
16313;DHT22;8265;52.622;13.296;2022-11-20T15:00:33;-0.50;90.30
16313;DHT22;8265;52.622;13.296;2022-11-20T15:05:53;-0.50;90.80
16313;DHT22;8265;52.622;13.296;2022-11-20T15:11:30;-0.50;90.60
16313;DHT22;8265;52.622;13.296;2022-11-20T15:16:35;-0.60;91.00
16313;DHT22;8265;52.622;13.296;2022-11-20T15:21:55;-0.60;91.20
16313;DHT22;8265;52.622;13.296;2022-11-20T15:27:16;-0.70;91.20
16313;DHT22;8265;52.622;13.296;2022-11-20T15:32:37;-0.60;91.20
16313;DHT22;8265;52.622;13.296;2022-11-20T15:37:58;-0.60;91.50
16313;DHT22;8265;52.622;13.296;2022-11-20T15:43:19;-0.60;91.30
16313;DHT22;8265;52.622;13.296;2022-11-20T15:48:41;-0.60;90.80
16313;DHT22;8265;52.622;13.296;2022-11-20T15:54:14;-0.70;91.00
16313;DHT22;8265;52.622;13.296;2022-11-20T15:59:22;-0.70;91.30
16313;DHT22;8265;52.622;13.296;2022-11-20T16:04:43;-1.00;91.00
16313;DHT22;8265;52.622;13.296;2022-11-20T16:10:07;-1.30;91.80
16313;DHT22;8265;52.622;13.296;2022-11-20T16:15:25;-1.30;92.20
16313;DHT22;8265;52.622;13.296;2022-11-20T16:20:47;-1.50;92.50
16313;DHT22;8265;52.622;13.296;2022-11-20T16:26:11;-1.60;92.90
16313;DHT22;8265;52.622;13.296;2022-11-20T16:31:28;-1.60;93.00
16313;DHT22;8265;52.622;13.296;2022-11-20T16:36:49;-1.50;93.20
16313;DHT22;8265;52.622;13.296;2022-11-20T16:42:11;-1.50;92.80
16313;DHT22;8265;52.622;13.296;2022-11-20T16:47:34;-1.30;93.00
16313;DHT22;8265;52.622;13.296;2022-11-20T16:52:53;-1.30;92.00
16313;DHT22;8265;52.622;13.296;2022-11-20T16:58:13;-1.10;91.20
16313;DHT22;8265;52.622;13.296;2022-11-20T17:03:41;-1.20;90.90
16313;DHT22;8265;52.622;13.296;2022-11-20T17:08:56;-1.10;90.60
16313;DHT22;8265;52.622;13.296;2022-11-20T17:14:16;-1.10;90.60
16313;DHT22;8265;52.622;13.296;2022-11-20T17:19:37;-1.00;90.30
16313;DHT22;8265;52.622;13.296;2022-11-20T17:24:58;-1.10;89.90
16313;DHT22;8265;52.622;13.296;2022-11-20T17:30:19;-1.00;90.00
16313;DHT22;8265;52.622;13.296;2022-11-20T17:35:40;-1.00;90.50
16313;DHT22;8265;52.622;13.296;2022-11-20T17:41:04;-1.10;89.80
16313;DHT22;8265;52.622;13.296;2022-11-20T17:46:23;-1.10;90.00
16313;DHT22;8265;52.622;13.296;2022-11-20T17:51:43;-1.10;90.20
16313;DHT22;8265;52.622;13.296;2022-11-20T17:57:05;-1.10;90.00
16313;DHT22;8265;52.622;13.296;2022-11-20T18:02:25;-1.00;90.00
16313;DHT22;8265;52.622;13.296;2022-11-20T18:07:50;-1.00;89.80
16313;DHT22;8265;52.622;13.296;2022-11-20T18:13:07;-1.00;89.80
16313;DHT22;8265;52.622;13.296;2022-11-20T18:18:28;-1.00;89.80
16313;DHT22;8265;52.622;13.296;2022-11-20T18:23:50;-1.00;90.20
16313;DHT22;8265;52.622;13.296;2022-11-20T18:29:11;-1.10;89.80
16313;DHT22;8265;52.622;13.296;2022-11-20T18:34:31;-1.00;90.20
16313;DHT22;8265;52.622;13.296;2022-11-20T18:39:52;-1.00;89.80
16313;DHT22;8265;52.622;13.296;2022-11-20T18:45:13;-1.00;90.10
16313;DHT22;8265;52.622;13.296;2022-11-20T18:50:34;-1.00;89.70
16313;DHT22;8265;52.622;13.296;2022-11-20T18:55:55;-1.00;90.30
16313;DHT22;8265;52.622;13.296;2022-11-20T19:01:16;-1.10;89.80
16313;DHT22;8265;52.622;13.296;2022-11-20T19:06:38;-1.30;90.10
16313;DHT22;8265;52.622;13.296;2022-11-20T19:11:58;-1.50;90.60
16313;DHT22;8265;52.622;13.296;2022-11-20T19:17:19;-1.50;90.80
16313;DHT22;8265;52.622;13.296;2022-11-20T19:22:40;-1.60;91.00
16313;DHT22;8265;52.622;13.296;2022-11-20T19:28:01;-1.50;90.80
16313;DHT22;8265;52.622;13.296;2022-11-20T19:33:22;-1.50;90.50
16313;DHT22;8265;52.622;13.296;2022-11-20T19:38:44;-1.50;90.80
16313;DHT22;8265;52.622;13.296;2022-11-20T19:44:05;-1.40;90.10
16313;DHT22;8265;52.622;13.296;2022-11-20T19:49:25;-1.50;90.40
16313;DHT22;8265;52.622;13.296;2022-11-20T19:54:46;-1.50;90.20
16313;DHT22;8265;52.622;13.296;2022-11-20T20:00:08;-1.50;90.20
16313;DHT22;8265;52.622;13.296;2022-11-20T20:05:28;-1.50;90.00
16313;DHT22;8265;52.622;13.296;2022-11-20T20:10:49;-1.60;89.80
16313;DHT22;8265;52.622;13.296;2022-11-20T20:16:11;-1.70;90.20
16313;DHT22;8265;52.622;13.296;2022-11-20T20:21:33;-1.80;90.80
16313;DHT22;8265;52.622;13.296;2022-11-20T20:26:52;-1.90;90.10
16313;DHT22;8265;52.622;13.296;2022-11-20T20:32:13;-2.00;90.60
16313;DHT22;8265;52.622;13.296;2022-11-20T20:37:34;-2.20;91.40
16313;DHT22;8265;52.622;13.296;2022-11-20T20:42:55;-2.30;91.90
16313;DHT22;8265;52.622;13.296;2022-11-20T20:48:17;-2.20;91.90
16313;DHT22;8265;52.622;13.296;2022-11-20T20:53:37;-2.30;92.10
16313;DHT22;8265;52.622;13.296;2022-11-20T20:58:58;-2.40;92.30
16313;DHT22;8265;52.622;13.296;2022-11-20T21:04:19;-2.50;92.40
16313;DHT22;8265;52.622;13.296;2022-11-20T21:09:40;-2.60;92.10
16313;DHT22;8265;52.622;13.296;2022-11-20T21:15:01;-2.70;92.50
16313;DHT22;8265;52.622;13.296;2022-11-20T21:20:22;-2.90;92.90
16313;DHT22;8265;52.622;13.296;2022-11-20T21:25:43;-2.90;92.90
16313;DHT22;8265;52.622;13.296;2022-11-20T21:36:29;-3.30;93.00
16313;DHT22;8265;52.622;13.296;2022-11-20T21:41:46;-3.40;93.10
16313;DHT22;8265;52.622;13.296;2022-11-20T21:47:07;-3.20;93.60
16313;DHT22;8265;52.622;13.296;2022-11-20T21:52:28;-3.20;92.70
16313;DHT22;8265;52.622;13.296;2022-11-20T21:57:49;-3.40;93.00
16313;DHT22;8265;52.622;13.296;2022-11-20T22:03:10;-3.60;93.20
16313;DHT22;8265;52.622;13.296;2022-11-20T22:08:32;-3.60;93.50
16313;DHT22;8265;52.622;13.296;2022-11-20T22:13:52;-3.70;93.50
16313;DHT22;8265;52.622;13.296;2022-11-20T22:19:16;-3.80;93.60
16313;DHT22;8265;52.622;13.296;2022-11-20T22:24:34;-3.80;93.50
16313;DHT22;8265;52.622;13.296;2022-11-20T22:29:55;-3.80;93.70
16313;DHT22;8265;52.622;13.296;2022-11-20T22:35:16;-3.90;93.40
16313;DHT22;8265;52.622;13.296;2022-11-20T22:40:37;-3.90;93.40
16313;DHT22;8265;52.622;13.296;2022-11-20T22:46:02;-4.10;93.00
16313;DHT22;8265;52.622;13.296;2022-11-20T22:51:20;-4.00;93.40
16313;DHT22;8265;52.622;13.296;2022-11-20T22:56:40;-4.20;93.20
16313;DHT22;8265;52.622;13.296;2022-11-20T23:02:01;-4.20;93.70
16313;DHT22;8265;52.622;13.296;2022-11-20T23:07:22;-4.20;93.60
16313;DHT22;8265;52.622;13.296;2022-11-20T23:12:44;-4.30;93.00
16313;DHT22;8265;52.622;13.296;2022-11-20T23:18:11;-4.40;92.90
16313;DHT22;8265;52.622;13.296;2022-11-20T23:23:33;-4.50;93.10
16313;DHT22;8265;52.622;13.296;2022-11-20T23:28:53;-4.60;93.10
16313;DHT22;8265;52.622;13.296;2022-11-20T23:34:14;-4.60;93.10
16313;DHT22;8265;52.622;13.296;2022-11-20T23:39:35;-4.60;93.20
16313;DHT22;8265;52.622;13.296;2022-11-20T23:44:56;-4.60;93.60
16313;DHT22;8265;52.622;13.296;2022-11-20T23:50:17;-4.40;94.30
16313;DHT22;8265;52.622;13.296;2022-11-20T23:55:38;-4.00;94.10
